Time;durP1;ratioP1;P1;durP2;ratioP2;P2;SDS_P1;SDS_P2;PMS_P1;PMS_P2;Temp;Humidity;BMP_temperature;BMP_pressure;BME280_temperature;BME280_humidity;BME280_pressure;Samples;Min_cycle;Max_cycle;Signal;HPM_P1;HPM_P2
2022/03/24 00:00:53;;;;;;;29.45;11.73;;;;;;;-1.74;70.73;95848.28;5024072;28;20041;-47
2022/03/24 00:03:20;;;;;;;40.40;13.70;;;;;;;-1.67;70.92;95844.25;5026675;28;20060;-47
2022/03/24 00:05:53;;;;;;;28.17;13.07;;;;;;;-1.62;71.15;95846.41;5027675;28;20052;-46
2022/03/24 00:08:20;;;;;;;32.83;11.63;;;;;;;-1.73;71.46;95825.16;5028654;28;20103;-47
2022/03/24 00:10:46;;;;;;;37.05;12.45;;;;;;;-1.62;71.47;95836.19;5031636;28;20053;-47
2022/03/24 00:13:14;;;;;;;31.73;11.80;;;;;;;-1.63;71.31;95830.28;5024989;28;20527;-45
2022/03/24 00:15:41;;;;;;;30.10;11.77;;;;;;;-1.65;71.37;95827.06;5029606;28;20553;-45
2022/03/24 00:18:08;;;;;;;23.83;10.68;;;;;;;-1.68;71.30;95826.50;5030687;28;20041;-46
2022/03/24 00:20:35;;;;;;;21.17;9.15;;;;;;;-1.63;70.99;95824.38;5030943;28;20148;-47
2022/03/24 00:23:02;;;;;;;22.67;9.85;;;;;;;-1.68;71.32;95817.09;5031853;28;20415;-46
2022/03/24 00:25:29;;;;;;;28.98;10.73;;;;;;;-1.70;71.67;95815.63;5029395;28;20053;-46
2022/03/24 00:27:56;;;;;;;28.55;11.15;;;;;;;-1.68;71.94;95816.28;5028783;28;20049;-45
2022/03/24 00:30:23;;;;;;;27.10;11.05;;;;;;;-1.66;71.54;95814.41;5028554;28;20129;-47
2022/03/24 00:32:50;;;;;;;26.00;11.55;;;;;;;-1.68;71.43;95806.06;5030369;28;20041;-47
2022/03/24 00:35:17;;;;;;;36.35;12.07;;;;;;;-1.68;71.39;95800.97;5029432;28;20068;-47
2022/03/24 00:37:44;;;;;;;23.60;10.85;;;;;;;-1.69;71.36;95800.16;5032824;28;20045;-45
2022/03/24 00:40:16;;;;;;;28.27;11.25;;;;;;;-1.67;71.52;95792.38;5026602;28;20507;-47
2022/03/24 00:42:45;;;;;;;24.60;12.02;;;;;;;-1.69;70.95;95794.22;5027102;28;20034;-48
2022/03/24 00:45:15;;;;;;;28.52;11.63;;;;;;;-1.78;70.88;95791.53;5028889;28;20033;-48
2022/03/24 00:47:43;;;;;;;33.53;13.05;;;;;;;-1.87;71.16;95787.22;5022884;28;20421;-48
2022/03/24 00:50:11;;;;;;;22.15;10.45;;;;;;;-1.96;70.96;95782.88;5029828;28;20040;-47
2022/03/24 00:52:44;;;;;;;28.02;11.68;;;;;;;-2.15;70.78;95768.28;5023101;28;20088;-51
2022/03/24 00:55:15;;;;;;;27.35;11.23;;;;;;;-2.15;70.70;95775.97;5024584;28;20141;-44
2022/03/24 00:57:44;;;;;;;39.13;15.63;;;;;;;-2.31;71.12;95778.97;5028946;28;20092;-45
2022/03/24 01:00:15;;;;;;;25.75;11.68;;;;;;;-2.36;72.06;95776.00;5026964;28;20091;-46
2022/03/24 01:02:48;;;;;;;30.40;11.75;;;;;;;-2.35;73.30;95767.41;5027277;28;20071;-46
2022/03/24 01:05:16;;;;;;;27.83;11.02;;;;;;;-2.45;73.43;95752.06;5027479;28;20045;-48
2022/03/24 01:07:44;;;;;;;24.83;10.32;;;;;;;-2.37;73.88;95764.19;5029872;28;20084;-48
2022/03/24 01:10:13;;;;;;;25.92;12.38;;;;;;;-2.37;74.26;95759.09;5026945;28;20518;-47
2022/03/24 01:12:41;;;;;;;43.55;18.27;;;;;;;-2.40;74.34;95767.00;5024759;28;20042;-48
2022/03/24 01:15:10;;;;;;;31.42;15.23;;;;;;;-2.35;74.18;95767.41;5032424;28;20044;-45
2022/03/24 01:17:37;;;;;;;28.48;14.10;;;;;;;-2.36;74.07;95765.78;5025563;28;20048;-47
2022/03/24 01:20:05;;;;;;;27.92;13.77;;;;;;;-2.32;74.51;95762.06;5024810;28;20044;-45
2022/03/24 01:22:32;;;;;;;33.65;14.98;;;;;;;-2.28;74.81;95753.22;5033791;28;20037;-45
2022/03/24 01:24:59;;;;;;;34.45;15.05;;;;;;;-2.25;74.68;95758.06;5034460;28;20044;-44
2022/03/24 01:27:28;;;;;;;27.65;13.02;;;;;;;-2.29;75.51;95761.78;5030155;28;20056;-45
2022/03/24 01:29:56;;;;;;;26.45;12.20;;;;;;;-2.28;75.28;95755.75;5028430;28;20065;-44
2022/03/24 01:32:26;;;;;;;30.33;12.38;;;;;;;-2.21;75.78;95753.50;5029946;28;20040;-50
2022/03/24 01:34:54;;;;;;;21.42;11.25;;;;;;;-2.15;75.46;95751.22;5029431;28;20120;-47
2022/03/24 01:37:23;;;;;;;25.52;13.20;;;;;;;-2.14;75.07;95750.31;5031691;28;20063;-50
2022/03/24 01:39:51;;;;;;;21.58;10.68;;;;;;;-2.20;74.66;95735.50;5037098;28;20530;-48
2022/03/24 01:42:19;;;;;;;34.00;12.50;;;;;;;-2.22;74.86;95742.47;5032432;28;20041;-48
2022/03/24 01:44:47;;;;;;;27.25;14.30;;;;;;;-2.23;74.70;95738.31;5018592;28;20075;-45
2022/03/24 01:47:16;;;;;;;22.38;11.30;;;;;;;-2.32;74.92;95742.44;5027619;28;20057;-47
2022/03/24 01:49:47;;;;;;;26.65;12.10;;;;;;;-2.36;75.00;95740.28;5026696;28;20180;-45
2022/03/24 01:52:18;;;;;;;32.25;12.70;;;;;;;-2.42;75.03;95735.69;5027078;28;20041;-45
2022/03/24 01:54:48;;;;;;;29.55;12.65;;;;;;;-2.53;74.74;95739.13;5033915;28;20132;-46
2022/03/24 01:57:17;;;;;;;28.55;10.70;;;;;;;-2.60;74.33;95738.84;5026208;28;20049;-46
2022/03/24 01:59:44;;;;;;;24.88;11.45;;;;;;;-2.65;74.63;95740.94;5027386;28;20052;-47
2022/03/24 02:02:14;;;;;;;21.08;9.55;;;;;;;-2.80;74.12;95732.03;5027676;28;20494;-45
2022/03/24 02:04:43;;;;;;;24.48;8.45;;;;;;;-3.05;73.63;95734.03;5026710;28;20147;-48
2022/03/24 02:07:13;;;;;;;19.23;7.45;;;;;;;-3.15;74.44;95743.34;5034559;28;20044;-45
2022/03/24 02:09:40;;;;;;;28.30;9.10;;;;;;;-3.29;75.05;95745.25;5022898;28;20422;-45
2022/03/24 02:12:13;;;;;;;20.98;9.50;;;;;;;-3.35;75.51;95748.31;5028565;28;20098;-45
2022/03/24 02:14:41;;;;;;;22.33;8.07;;;;;;;-3.44;76.11;95746.47;5027171;28;20049;-46
2022/03/24 02:17:10;;;;;;;16.50;7.57;;;;;;;-3.50;76.96;95744.44;5033175;28;20048;-46
2022/03/24 02:19:37;;;;;;;18.20;8.10;;;;;;;-3.51;77.41;95752.97;5028467;28;20049;-48
2022/03/24 02:22:15;;;;;;;19.45;6.70;;;;;;;-3.60;77.78;95739.25;5023365;28;20053;-45
2022/03/24 02:24:43;;;;;;;26.40;8.25;;;;;;;-3.70;77.95;95740.91;5027048;28;20174;-48
2022/03/24 02:27:11;;;;;;;21.08;7.30;;;;;;;-3.79;78.81;95736.53;5026549;28;20052;-46
2022/03/24 02:29:38;;;;;;;22.92;8.52;;;;;;;-3.86;79.69;95738.75;5028277;28;20053;-47
2022/03/24 02:32:08;;;;;;;12.10;6.57;;;;;;;-3.90;80.04;95742.47;5031258;28;20443;-45
2022/03/24 02:34:47;;;;;;;18.98;7.50;;;;;;;-3.92;80.24;95744.31;5029984;28;20045;-46
2022/03/24 02:37:20;;;;;;;17.60;8.07;;;;;;;-3.97;80.71;95741.31;5030414;28;20507;-45
2022/03/24 02:39:53;;;;;;;24.77;9.95;;;;;;;-3.95;81.34;95737.72;5025646;28;20427;-45
2022/03/24 02:42:23;;;;;;;20.75;8.85;;;;;;;-3.90;81.62;95732.28;5029666;28;20037;-48
2022/03/24 02:44:58;;;;;;;28.98;8.48;;;;;;;-3.88;81.94;95725.34;5028371;28;20426;-46
2022/03/24 02:47:25;;;;;;;18.50;7.13;;;;;;;-3.88;82.08;95725.34;5028076;28;20107;-45
2022/03/24 02:49:54;;;;;;;23.38;10.20;;;;;;;-3.92;82.64;95709.50;5029408;28;20052;-48
2022/03/24 02:52:21;;;;;;;24.95;9.55;;;;;;;-3.82;82.53;95722.28;5030435;28;20042;-45
2022/03/24 02:54:47;;;;;;;27.80;10.35;;;;;;;-3.79;82.30;95724.59;5030674;28;20041;-50
2022/03/24 02:57:15;;;;;;;26.13;10.02;;;;;;;-3.80;82.33;95722.19;5024094;28;20057;-46
2022/03/24 02:59:41;;;;;;;20.77;7.75;;;;;;;-3.80;81.87;95722.97;5025197;28;20049;-47
2022/03/24 03:02:13;;;;;;;17.27;7.57;;;;;;;-3.78;82.26;95726.25;5025454;28;20511;-45
2022/03/24 03:04:49;;;;;;;19.55;9.45;;;;;;;-3.80;82.45;95733.16;5031974;28;20056;-47
2022/03/24 03:07:17;;;;;;;23.00;7.72;;;;;;;-3.76;82.49;95724.38;5027598;28;20045;-46
2022/03/24 03:09:44;;;;;;;15.15;7.32;;;;;;;-3.77;82.65;95727.84;5029841;28;20402;-48
2022/03/24 03:12:11;;;;;;;21.55;6.43;;;;;;;-3.77;82.29;95727.03;5024868;28;20053;-45
2022/03/24 03:14:39;;;;;;;17.88;6.97;;;;;;;-3.83;82.62;95728.34;5027304;28;20042;-50
2022/03/24 03:17:07;;;;;;;14.15;6.20;;;;;;;-4.03;82.77;95706.97;5022478;28;20139;-45
2022/03/24 03:19:34;;;;;;;12.80;5.05;;;;;;;-3.92;83.28;95729.06;5036091;28;20057;-44
2022/03/24 03:22:04;;;;;;;11.98;6.22;;;;;;;-3.97;83.86;95737.03;5034001;28;21469;-44
2022/03/24 03:24:31;;;;;;;14.32;7.00;;;;;;;-3.90;83.80;95722.91;5028086;28;20046;-46
2022/03/24 03:26:58;;;;;;;16.75;7.07;;;;;;;-3.92;83.94;95718.88;5031545;28;20045;-44
2022/03/24 03:29:25;;;;;;;22.05;6.63;;;;;;;-3.93;82.89;95722.34;5031194;28;20045;-44
2022/03/24 03:31:53;;;;;;;16.98;7.53;;;;;;;-4.00;82.71;95728.81;5031225;28;20059;-46
2022/03/24 03:34:24;;;;;;;17.00;5.70;;;;;;;-4.01;82.89;95732.31;5032054;28;20514;-45
2022/03/24 03:36:53;;;;;;;17.20;7.03;;;;;;;-4.00;83.24;95726.28;5034731;28;20128;-46
2022/03/24 03:39:22;;;;;;;9.07;5.70;;;;;;;-4.00;83.08;95731.38;5031589;28;20050;-45
2022/03/24 03:41:49;;;;;;;17.13;7.68;;;;;;;-4.01;83.66;95729.78;5031932;28;20064;-45
2022/03/24 03:44:16;;;;;;;16.17;7.28;;;;;;;-3.97;82.95;95731.94;5033119;28;20533;-46
2022/03/24 03:46:43;;;;;;;14.45;6.05;;;;;;;-4.10;83.67;95721.91;5034867;28;20087;-45
2022/03/24 03:49:10;;;;;;;14.30;7.45;;;;;;;-4.12;83.74;95728.84;5033415;28;20104;-45
2022/03/24 03:51:37;;;;;;;14.88;7.82;;;;;;;-4.08;83.56;95727.69;5030339;28;20053;-50
2022/03/24 03:54:06;;;;;;;23.60;7.45;;;;;;;-4.10;83.72;95727.00;5032083;28;20034;-46
2022/03/24 03:56:34;;;;;;;14.57;7.70;;;;;;;-4.20;84.21;95721.00;5028390;28;20046;-44
2022/03/24 03:59:01;;;;;;;16.98;7.45;;;;;;;-4.12;84.31;95733.94;5032840;28;20069;-44
2022/03/24 04:01:29;;;;;;;15.55;7.80;;;;;;;-4.08;85.13;95735.31;5027223;28;20122;-45
2022/03/24 04:03:57;;;;;;;23.20;7.13;;;;;;;-4.05;84.86;95730.00;5034167;28;20416;-45
2022/03/24 04:06:24;;;;;;;18.10;8.00;;;;;;;-4.08;84.84;95734.50;5029291;28;20860;-45
2022/03/24 04:08:51;;;;;;;17.80;8.75;;;;;;;-4.11;84.39;95734.75;5027354;28;20045;-47
2022/03/24 04:11:19;;;;;;;17.85;8.18;;;;;;;-4.14;84.36;95725.63;5027418;28;20049;-46
2022/03/24 04:13:46;;;;;;;13.85;7.82;;;;;;;-4.16;85.02;95730.03;5030772;28;20095;-47
2022/03/24 04:16:14;;;;;;;26.02;7.80;;;;;;;-4.09;84.62;95732.88;5034646;28;20482;-45
2022/03/24 04:18:43;;;;;;;16.25;7.53;;;;;;;-4.17;84.45;95736.03;5034688;28;20053;-46
2022/03/24 04:21:11;;;;;;;19.33;8.63;;;;;;;-4.20;83.88;95731.16;5035759;28;20045;-46
2022/03/24 04:23:40;;;;;;;35.60;9.05;;;;;;;-4.21;83.65;95734.66;5033967;28;20444;-45
2022/03/24 04:26:07;;;;;;;22.83;12.23;;;;;;;-4.27;84.12;95735.94;5035498;28;20398;-44
2022/03/24 04:28:34;;;;;;;18.58;10.93;;;;;;;-4.27;84.89;95735.09;5024710;28;20534;-45
2022/03/24 04:31:01;;;;;;;25.75;11.63;;;;;;;-4.32;84.84;95721.91;5031857;28;20065;-45
2022/03/24 04:33:28;;;;;;;22.02;11.10;;;;;;;-4.31;84.91;95718.47;5034658;28;20125;-47
2022/03/24 04:35:58;;;;;;;19.15;10.40;;;;;;;-4.14;84.31;95732.44;5031077;28;20057;-45
2022/03/24 04:38:26;;;;;;;35.72;14.75;;;;;;;-4.18;84.51;95739.47;5027651;28;20477;-45
2022/03/24 04:40:55;;;;;;;27.58;11.57;;;;;;;-4.20;85.06;95741.34;5031231;28;20079;-44
2022/03/24 04:43:21;;;;;;;37.45;13.25;;;;;;;-4.26;85.11;95726.56;5032470;28;20415;-45
2022/03/24 04:45:48;;;;;;;43.08;16.90;;;;;;;-4.13;85.12;95734.84;5033462;28;20123;-48
2022/03/24 04:48:15;;;;;;;28.80;13.30;;;;;;;-4.17;85.42;95741.13;5031714;28;20110;-44
2022/03/24 04:50:43;;;;;;;36.65;14.90;;;;;;;-4.15;85.45;95728.28;5029284;28;20060;-46
2022/03/24 04:53:15;;;;;;;29.05;13.40;;;;;;;-4.10;85.95;95739.72;5032357;28;20120;-44
2022/03/24 04:55:43;;;;;;;30.17;13.00;;;;;;;-4.03;86.21;95740.88;5028213;28;20037;-48
2022/03/24 04:58:11;;;;;;;27.65;13.25;;;;;;;-3.93;86.06;95738.41;5038011;28;20078;-50
2022/03/24 05:00:39;;;;;;;24.67;12.57;;;;;;;-3.88;86.66;95736.31;5030392;28;20049;-48
2022/03/24 05:03:06;;;;;;;46.38;16.42;;;;;;;-3.79;86.72;95739.09;5032559;28;20045;-46
2022/03/24 05:05:33;;;;;;;41.35;17.15;;;;;;;-3.72;87.38;95745.31;5029235;28;20063;-46
2022/03/24 05:08:00;;;;;;;45.35;16.08;;;;;;;-3.66;87.57;95740.53;5032079;28;20049;-44
2022/03/24 05:10:27;;;;;;;30.38;13.43;;;;;;;-3.54;87.73;95740.50;5030339;28;20037;-46
2022/03/24 05:12:54;;;;;;;183.20;55.70;;;;;;;-3.46;87.67;95745.78;5026012;28;20055;-49
2022/03/24 05:15:22;;;;;;;36.72;19.35;;;;;;;-3.31;87.29;95744.59;5028023;28;20049;-46
2022/03/24 05:17:49;;;;;;;41.10;23.52;;;;;;;-3.19;86.59;95726.69;5028883;28;20048;-45
2022/03/24 05:20:16;;;;;;;41.85;20.23;;;;;;;-2.99;86.19;95743.75;5027474;28;20057;-47
2022/03/24 05:22:42;;;;;;;39.10;14.68;;;;;;;-2.91;85.41;95746.44;5035054;28;20060;-51
2022/03/24 05:25:09;;;;;;;38.28;15.85;;;;;;;-2.81;85.06;95736.34;5023687;28;20119;-50
2022/03/24 05:27:36;;;;;;;24.08;10.82;;;;;;;-2.71;84.70;95737.16;5022002;28;20067;-49
2022/03/24 05:30:05;;;;;;;29.13;13.30;;;;;;;-2.58;84.18;95736.16;5022997;28;20103;-49
2022/03/24 05:32:32;;;;;;;23.65;10.43;;;;;;;-2.50;84.24;95734.59;5021574;28;20095;-49
2022/03/24 05:35:00;;;;;;;20.23;9.10;;;;;;;-2.43;84.10;95734.06;5023286;28;20041;-50
2022/03/24 05:37:28;;;;;;;25.50;12.45;;;;;;;-2.24;83.53;95741.81;5022719;28;20041;-53
2022/03/24 05:39:55;;;;;;;23.50;12.10;;;;;;;-2.16;83.29;95741.97;5022977;28;20057;-49
2022/03/24 05:42:22;;;;;;;37.67;13.38;;;;;;;-2.02;83.04;95727.22;5025838;28;20491;-50
2022/03/24 05:44:48;;;;;;;31.15;14.48;;;;;;;-1.82;83.36;95736.56;5026949;28;20039;-49
2022/03/24 05:47:15;;;;;;;41.78;19.70;;;;;;;-1.68;82.89;95739.66;5025740;28;20553;-52
2022/03/24 05:49:42;;;;;;;35.65;15.55;;;;;;;-1.55;81.89;95740.19;5025786;28;20045;-48
2022/03/24 05:52:09;;;;;;;41.10;16.90;;;;;;;-1.39;80.57;95740.50;5031885;28;20053;-52
2022/03/24 05:54:36;;;;;;;26.55;13.23;;;;;;;-1.27;78.49;95748.03;5025873;28;20431;-51
2022/03/24 05:57:03;;;;;;;29.17;12.80;;;;;;;-1.20;77.93;95743.97;5022883;28;20053;-48
2022/03/24 05:59:30;;;;;;;26.80;12.20;;;;;;;-1.08;77.40;95742.91;5020822;28;20046;-53
2022/03/24 06:01:57;;;;;;;89.60;42.47;;;;;;;-0.87;78.13;95739.38;5020972;28;20045;-53
2022/03/24 06:04:24;;;;;;;65.13;34.55;;;;;;;-0.68;76.04;95748.75;5023427;28;20046;-50
2022/03/24 06:06:54;;;;;;;39.15;17.63;;;;;;;-0.52;74.83;95748.16;5020841;28;20556;-51
2022/03/24 06:09:21;;;;;;;31.20;13.93;;;;;;;-0.35;74.88;95747.44;5029107;28;20144;-52
2022/03/24 06:11:48;;;;;;;26.20;12.88;;;;;;;-0.14;73.69;95746.44;5026158;28;20064;-51
2022/03/24 06:14:15;;;;;;;28.65;12.57;;;;;;;0.04;73.08;95742.16;5020735;28;20052;-46
2022/03/24 06:16:42;;;;;;;34.72;14.60;;;;;;;0.22;71.40;95751.59;5027385;28;20418;-49
2022/03/24 06:19:10;;;;;;;27.20;12.52;;;;;;;0.46;70.76;95739.06;5032223;28;20072;-50
2022/03/24 06:21:38;;;;;;;29.88;13.82;;;;;;;0.69;70.37;95733.50;5023782;28;20045;-49
2022/03/24 06:24:07;;;;;;;38.15;17.15;;;;;;;0.92;69.70;95726.97;5019434;28;20041;-49
2022/03/24 06:26:34;;;;;;;29.17;14.25;;;;;;;1.10;67.87;95741.53;5019898;28;20049;-53
2022/03/24 06:29:01;;;;;;;50.88;15.25;;;;;;;1.31;67.46;95739.44;5020815;28;20052;-51
2022/03/24 06:31:30;;;;;;;37.08;13.95;;;;;;;1.49;67.21;95741.13;5020212;28;20049;-51
2022/03/24 06:33:57;;;;;;;26.30;11.77;;;;;;;1.71;67.06;95732.91;5027730;28;20564;-49
2022/03/24 06:36:25;;;;;;;21.23;10.15;;;;;;;1.85;64.17;95735.84;5020168;28;20041;-51
2022/03/24 06:38:52;;;;;;;23.88;10.15;;;;;;;1.94;64.75;95736.69;5023865;28;20372;-50
2022/03/24 06:41:19;;;;;;;26.50;10.52;;;;;;;1.94;65.39;95729.78;5019600;28;20045;-50
2022/03/24 06:43:47;;;;;;;27.83;12.55;;;;;;;2.15;66.24;95737.09;5019405;28;20095;-48
2022/03/24 06:46:14;;;;;;;18.92;10.18;;;;;;;2.26;65.39;95733.41;5020981;28;20048;-50
2022/03/24 06:48:42;;;;;;;25.20;10.90;;;;;;;2.42;65.57;95736.03;5019258;28;20772;-49
2022/03/24 06:51:09;;;;;;;22.50;9.65;;;;;;;2.44;63.30;95716.09;5022322;28;20041;-52
2022/03/24 06:53:36;;;;;;;39.25;10.23;;;;;;;2.64;62.37;95731.25;5019758;28;20046;-49
2022/03/24 06:56:05;;;;;;;22.02;9.27;;;;;;;2.77;61.59;95721.28;5025764;28;20772;-51
2022/03/24 06:58:32;;;;;;;20.35;9.80;;;;;;;2.87;61.91;95721.91;5022072;28;20561;-50
2022/03/24 07:00:58;;;;;;;19.13;8.93;;;;;;;3.02;61.65;95723.84;5021901;28;20053;-47
2022/03/24 07:03:25;;;;;;;26.85;11.25;;;;;;;3.21;61.30;95723.53;5029232;28;20049;-47
2022/03/24 07:05:52;;;;;;;13.48;7.68;;;;;;;3.28;59.19;95723.69;5021253;28;20136;-50
2022/03/24 07:08:19;;;;;;;23.15;10.23;;;;;;;3.43;58.77;95721.22;5018338;28;20099;-48
2022/03/24 07:10:46;;;;;;;32.63;11.48;;;;;;;3.56;58.32;95720.72;5020977;28;20103;-47
2022/03/24 07:13:13;;;;;;;22.67;10.13;;;;;;;3.69;58.31;95726.19;5019777;28;20045;-50
2022/03/24 07:15:40;;;;;;;21.77;9.20;;;;;;;3.89;57.74;95726.59;5021103;28;20049;-49
2022/03/24 07:18:08;;;;;;;25.30;11.65;;;;;;;3.95;57.12;95723.31;5018440;28;20413;-50
2022/03/24 07:20:36;;;;;;;18.77;8.77;;;;;;;4.19;57.87;95721.59;5024171;28;20037;-47
2022/03/24 07:23:04;;;;;;;19.88;8.88;;;;;;;4.17;55.89;95723.56;5021390;28;20147;-50
2022/03/24 07:27:39;;;;;;;22.10;9.45;;;;;;;4.35;55.70;95711.19;5097853;27;20136;-52
2022/03/24 07:30:06;;;;;;;21.48;10.30;;;;;;;4.54;54.42;95719.50;5115998;27;20043;-52
2022/03/24 07:32:33;;;;;;;25.73;9.77;;;;;;;4.66;54.79;95712.94;5115849;27;20565;-47
2022/03/24 07:35:00;;;;;;;16.73;8.30;;;;;;;4.79;52.66;95715.75;5116525;27;20073;-52
2022/03/24 07:37:28;;;;;;;15.27;6.80;;;;;;;4.91;52.49;95718.72;5118028;27;20050;-51
2022/03/24 07:39:55;;;;;;;16.90;7.97;;;;;;;5.00;52.87;95719.47;5118625;27;20040;-48
2022/03/24 07:42:22;;;;;;;15.60;8.00;;;;;;;5.23;50.94;95716.06;5112809;27;20430;-47
2022/03/24 07:44:49;;;;;;;28.50;7.95;;;;;;;5.20;50.64;95708.66;5113867;27;20565;-49
2022/03/24 07:47:16;;;;;;;17.20;8.63;;;;;;;5.37;51.33;95712.69;5109469;27;20039;-53
2022/03/24 07:49:43;;;;;;;16.27;7.82;;;;;;;5.65;51.25;95707.72;5114918;27;20420;-47
2022/03/24 07:52:12;;;;;;;14.50;7.65;;;;;;;5.89;49.28;95704.06;5114081;27;20466;-50
2022/03/24 07:54:48;;;;;;;12.90;6.97;;;;;;;6.08;47.70;95712.25;5115499;27;20850;-52
2022/03/24 07:57:15;;;;;;;19.00;7.13;;;;;;;6.31;47.65;95707.75;5114627;27;20699;-52
2022/03/24 07:59:42;;;;;;;17.52;6.25;;;;;;;6.39;45.66;95703.47;5118943;27;20047;-49
2022/03/24 08:02:09;;;;;;;11.18;6.13;;;;;;;6.68;45.83;95712.91;5114741;27;20516;-51
2022/03/24 08:04:36;;;;;;;12.05;5.65;;;;;;;6.98;45.31;95705.81;5115650;27;20047;-52
2022/03/24 08:07:02;;;;;;;13.77;7.25;;;;;;;7.21;44.22;95707.41;5113779;27;20059;-53
2022/03/24 08:09:31;;;;;;;20.00;9.02;;;;;;;7.22;43.92;95709.81;5115715;27;20043;-52
2022/03/24 08:11:59;;;;;;;15.40;6.57;;;;;;;7.22;44.08;95703.78;5116816;27;20043;-53
2022/03/24 08:14:27;;;;;;;14.95;6.72;;;;;;;7.33;44.42;95705.91;5108943;27;20047;-51
2022/03/24 08:16:53;;;;;;;15.93;7.75;;;;;;;7.55;44.52;95700.66;5113391;27;20100;-48
2022/03/24 08:19:21;;;;;;;11.60;6.93;;;;;;;7.76;43.73;95700.56;5113163;27;21033;-51
2022/03/24 08:21:48;;;;;;;18.20;8.45;;;;;;;7.96;43.12;95699.84;5112617;27;20047;-52
2022/03/24 08:24:14;;;;;;;16.92;6.88;;;;;;;8.11;41.42;95690.16;5112166;27;20129;-51
2022/03/24 08:26:41;;;;;;;19.05;11.55;;;;;;;8.15;41.29;95699.13;5113251;27;20421;-52
2022/03/24 08:29:08;;;;;;;12.80;5.95;;;;;;;8.22;40.73;95689.59;5110828;27;20055;-49
2022/03/24 08:31:35;;;;;;;18.15;9.40;;;;;;;8.24;41.70;95697.19;5114249;27;20047;-49
2022/03/24 08:34:02;;;;;;;13.52;4.60;;;;;;;8.35;41.67;95686.22;5114245;27;20082;-51
2022/03/24 08:36:28;;;;;;;16.65;7.05;;;;;;;8.49;41.59;95679.31;5112160;27;20398;-49
2022/03/24 08:38:56;;;;;;;15.23;7.47;;;;;;;8.69;40.64;95684.53;5101279;27;20070;-51
2022/03/24 08:41:23;;;;;;;9.27;6.22;;;;;;;8.79;40.57;95689.34;5099261;27;20584;-51
2022/03/24 08:43:50;;;;;;;18.95;6.22;;;;;;;8.93;40.49;95685.78;5100441;27;20066;-47
2022/03/24 08:46:19;;;;;;;13.00;7.05;;;;;;;9.20;40.56;95680.59;5099569;28;20040;-48
2022/03/24 08:48:46;;;;;;;10.45;5.43;;;;;;;9.34;39.69;95676.94;5098259;27;20135;-51
2022/03/24 08:51:15;;;;;;;14.90;5.95;;;;;;;9.38;39.53;95664.34;5102514;27;20056;-51
2022/03/24 08:53:41;;;;;;;19.83;7.72;;;;;;;9.66;40.36;95669.28;5099479;27;20508;-52
2022/03/24 08:56:10;;;;;;;19.52;7.80;;;;;;;9.82;39.43;95662.06;5099650;27;20096;-50
2022/03/24 08:58:37;;;;;;;14.05;6.93;;;;;;;9.88;39.62;95676.84;5099464;27;20432;-52
2022/03/24 09:01:03;;;;;;;17.35;7.57;;;;;;;9.93;39.44;95664.00;5098710;28;20101;-51
2022/03/24 09:03:31;;;;;;;20.63;8.90;;;;;;;10.21;38.96;95666.31;5097767;28;20043;-53
2022/03/24 09:05:57;;;;;;;15.18;7.05;;;;;;;10.38;39.02;95666.63;5099247;27;20058;-53
2022/03/24 09:08:24;;;;;;;14.38;7.55;;;;;;;10.48;37.92;95651.38;5098469;28;20082;-52
2022/03/24 09:10:51;;;;;;;13.90;7.22;;;;;;;10.64;37.90;95649.25;5097910;28;20075;-50
2022/03/24 09:13:18;;;;;;;14.20;8.60;;;;;;;10.87;37.33;95649.47;5097543;28;21185;-50
2022/03/24 09:15:45;;;;;;;16.90;7.13;;;;;;;10.93;37.21;95636.59;5100990;28;20854;-52
2022/03/24 09:18:13;;;;;;;12.88;6.35;;;;;;;11.26;37.68;95647.56;5096046;28;20080;-52
2022/03/24 09:20:40;;;;;;;13.98;6.25;;;;;;;11.50;36.76;95626.06;5078664;28;20051;-50
2022/03/24 09:23:08;;;;;;;14.32;7.22;;;;;;;11.80;36.23;95636.59;5096860;28;20035;-50
2022/03/24 09:25:38;;;;;;;20.90;9.32;;;;;;;12.01;35.49;95632.72;5095734;28;20066;-52
2022/03/24 09:28:06;;;;;;;19.27;6.03;;;;;;;12.20;34.54;95628.28;5097785;27;20774;-51
2022/03/24 09:30:34;;;;;;;12.23;5.40;;;;;;;12.23;34.16;95615.59;5095209;28;20040;-53
2022/03/24 09:33:02;;;;;;;13.45;7.72;;;;;;;12.50;33.32;95614.44;5096057;28;20044;-53
2022/03/24 09:35:29;;;;;;;16.75;6.88;;;;;;;12.50;33.30;95624.88;5095182;28;20051;-52
2022/03/24 09:37:56;;;;;;;9.88;5.25;;;;;;;12.68;32.62;95603.91;5098839;27;20388;-48
2022/03/24 09:40:22;;;;;;;12.35;6.00;;;;;;;12.90;32.84;95605.97;5098074;28;20059;-52
2022/03/24 09:42:49;;;;;;;16.13;6.50;;;;;;;13.07;32.11;95604.28;5099669;27;20035;-50
2022/03/24 09:45:16;;;;;;;13.57;5.88;;;;;;;13.25;31.59;95597.31;5097955;28;20040;-52
2022/03/24 09:47:43;;;;;;;6.97;4.40;;;;;;;13.31;30.65;95596.47;5099987;27;20036;-50
2022/03/24 09:50:12;;;;;;;14.27;7.40;;;;;;;13.67;31.28;95594.59;5097145;27;20039;-53
2022/03/24 09:52:39;;;;;;;9.15;5.00;;;;;;;14.01;30.77;95592.88;5097149;27;20040;-51
2022/03/24 09:55:08;;;;;;;12.10;5.70;;;;;;;14.28;28.78;95592.34;5097700;27;20032;-49
2022/03/24 09:57:36;;;;;;;11.38;6.43;;;;;;;14.51;28.47;95586.16;5097779;28;20047;-51
2022/03/24 10:00:23;;;;;;;18.48;7.88;;;;;;;14.59;27.60;95579.78;5079697;27;20048;-50
2022/03/24 10:03:09;;;;;;;14.43;5.88;;;;;;;14.86;26.21;95577.31;5096190;28;20054;-53
2022/03/24 10:05:36;;;;;;;9.63;5.03;;;;;;;15.04;27.14;95578.88;5097115;27;20044;-49
2022/03/24 10:08:05;;;;;;;10.88;5.65;;;;;;;15.19;26.00;95586.19;5097381;27;20051;-50
2022/03/24 10:10:37;;;;;;;14.40;7.20;;;;;;;15.19;26.15;95570.44;5100680;27;20393;-50
2022/03/24 10:13:04;;;;;;;15.75;5.70;;;;;;;15.14;25.94;95575.59;5099677;27;20044;-51
2022/03/24 10:15:31;;;;;;;10.95;6.05;;;;;;;15.32;25.74;95564.81;5098358;27;20058;-53
2022/03/24 10:17:58;;;;;;;12.07;7.18;;;;;;;15.40;25.78;95567.03;5098869;27;20583;-48
2022/03/24 10:20:30;;;;;;;13.18;6.18;;;;;;;15.62;26.03;95568.88;5098893;27;20059;-50
2022/03/24 10:23:03;;;;;;;9.95;5.65;;;;;;;15.69;25.87;95553.75;5097428;27;20047;-48
2022/03/24 10:25:33;;;;;;;18.90;8.82;;;;;;;15.78;25.37;95547.03;5097738;28;20040;-53
2022/03/24 10:28:08;;;;;;;13.25;5.65;;;;;;;16.02;25.30;95536.25;5099368;27;20459;-49
2022/03/24 10:30:51;;;;;;;15.38;6.10;;;;;;;16.48;24.36;95539.31;5100277;27;20063;-51
2022/03/24 10:33:45;;;;;;;13.27;7.03;;;;;;;16.46;23.91;95530.88;5102516;27;20529;-50
2022/03/24 10:36:23;;;;;;;11.90;5.57;;;;;;;16.24;23.04;95529.13;5101558;28;20519;-51
2022/03/24 10:38:53;;;;;;;20.27;8.32;;;;;;;16.31;23.60;95539.41;5109147;27;20043;-50
2022/03/24 10:41:22;;;;;;;11.60;6.40;;;;;;;16.17;24.09;95506.69;5102691;27;20466;-48
2022/03/24 10:43:53;;;;;;;11.52;6.32;;;;;;;16.46;23.28;95536.16;5102170;28;20109;-52
2022/03/24 10:46:25;;;;;;;13.07;6.97;;;;;;;16.37;23.67;95506.09;5102107;28;20043;-51
2022/03/24 10:48:53;;;;;;;13.48;6.93;;;;;;;16.74;23.03;95505.31;5107591;27;20091;-51
2022/03/24 10:51:32;;;;;;;7.72;4.40;;;;;;;17.07;21.74;95498.97;5107055;27;20727;-48
2022/03/24 10:54:36;;;;;;;9.98;5.53;;;;;;;17.18;21.77;95507.72;5102123;28;20051;-50
2022/03/24 10:57:07;;;;;;;12.23;5.43;;;;;;;17.32;21.63;95498.31;5106839;27;20064;-51
2022/03/24 10:59:39;;;;;;;12.63;5.60;;;;;;;17.18;21.69;95479.56;5102023;27;20043;-48
2022/03/24 11:02:07;;;;;;;13.45;6.88;;;;;;;17.48;21.99;95498.34;5101432;27;20095;-55
2022/03/24 11:04:35;;;;;;;8.98;4.55;;;;;;;17.36;21.49;95502.00;5104238;28;20047;-50
2022/03/24 11:07:02;;;;;;;11.05;5.85;;;;;;;17.38;22.18;95484.09;5102384;28;20039;-54
2022/03/24 11:09:31;;;;;;;10.80;5.60;;;;;;;17.29;21.32;95490.91;5104446;27;20050;-52
2022/03/24 11:12:31;;;;;;;7.70;4.43;;;;;;;17.62;20.79;95488.16;5104454;27;20031;-51
2022/03/24 11:15:00;;;;;;;7.07;5.03;;;;;;;17.72;20.66;95478.44;5101318;28;20046;-52
2022/03/24 11:17:30;;;;;;;9.65;5.13;;;;;;;18.26;20.58;95477.22;5101147;28;20043;-51
2022/03/24 11:20:13;;;;;;;10.88;7.07;;;;;;;18.40;20.43;95477.50;5100524;28;20043;-51
2022/03/24 11:22:58;;;;;;;10.95;4.65;;;;;;;18.27;20.25;95475.34;5106723;28;20035;-52
2022/03/24 11:25:27;;;;;;;10.55;4.85;;;;;;;18.52;19.54;95464.78;5090920;28;20092;-52
2022/03/24 11:27:55;;;;;;;12.75;5.63;;;;;;;18.88;18.19;95472.69;5087597;28;20116;-51
2022/03/24 11:30:23;;;;;;;11.50;4.70;;;;;;;19.05;18.86;95466.31;5099592;28;20109;-53
2022/03/24 11:32:54;;;;;;;8.43;5.28;;;;;;;18.80;18.29;95462.66;5103498;28;20042;-52